createdAt,value
2019-05-20T00:02:27.523Z,11.73
2019-05-20T00:04:48.761Z,11.93
2019-05-20T00:07:13.233Z,11.60
2019-05-20T00:09:37.783Z,12.50
2019-05-20T00:12:02.264Z,11.50
2019-05-20T00:14:26.758Z,13.00
2019-05-20T00:16:51.232Z,12.27
2019-05-20T00:19:15.681Z,11.83
2019-05-20T00:21:40.215Z,11.80
2019-05-20T00:24:04.804Z,13.07
2019-05-20T00:26:29.338Z,12.20
2019-05-20T00:28:53.804Z,11.50
2019-05-20T00:31:18.272Z,11.63
2019-05-20T00:33:42.748Z,11.50
2019-05-20T00:36:07.305Z,11.80
2019-05-20T00:38:31.803Z,11.93
2019-05-20T00:40:56.228Z,12.00
2019-05-20T00:43:20.689Z,11.57
2019-05-20T00:45:45.166Z,11.40
2019-05-20T00:48:09.606Z,11.20
2019-05-20T00:50:35.034Z,12.07
2019-05-20T00:52:59.615Z,11.63
2019-05-20T00:55:27.134Z,11.73
2019-05-20T00:57:51.665Z,11.73
2019-05-20T01:00:16.352Z,12.07
2019-05-20T01:02:55.774Z,11.50
2019-05-20T01:05:07.125Z,11.53
2019-05-20T01:07:31.621Z,12.17
2019-05-20T01:09:56.140Z,12.57
2019-05-20T01:12:20.688Z,12.27
2019-05-20T01:14:45.198Z,12.60
2019-05-20T01:17:09.683Z,12.53
2019-05-20T01:19:34.225Z,12.87
2019-05-20T01:21:58.723Z,12.47
2019-05-20T01:24:23.231Z,12.37
2019-05-20T01:26:47.864Z,12.67
2019-05-20T01:29:12.342Z,12.83
2019-05-20T01:31:36.836Z,12.17
2019-05-20T01:34:01.282Z,12.80
2019-05-20T01:36:25.821Z,12.60
2019-05-20T01:38:50.279Z,13.67
2019-05-20T01:41:14.873Z,12.40
2019-05-20T01:43:39.357Z,13.10
2019-05-20T01:46:03.946Z,12.63
2019-05-20T01:48:28.436Z,13.07
2019-05-20T01:50:52.905Z,12.37
2019-05-20T01:53:17.462Z,12.17
2019-05-20T01:55:41.920Z,13.17
2019-05-20T01:58:06.405Z,12.67
2019-05-20T02:00:30.859Z,12.13
2019-05-20T02:02:55.521Z,13.40
2019-05-20T02:05:20.042Z,12.80
2019-05-20T02:07:44.652Z,12.70
2019-05-20T02:10:09.695Z,13.67
2019-05-20T02:12:34.206Z,13.40
2019-05-20T02:15:06.170Z,13.23
2019-05-20T02:17:30.720Z,13.27
2019-05-20T02:19:55.236Z,12.43
2019-05-20T02:22:19.796Z,12.67
2019-05-20T02:24:44.310Z,12.47
2019-05-20T02:27:08.919Z,12.60
2019-05-20T02:29:33.480Z,13.23
2019-05-20T02:31:57.936Z,13.27
2019-05-20T02:34:22.448Z,12.60
2019-05-20T02:36:46.956Z,13.23
2019-05-20T02:39:11.537Z,13.60
2019-05-20T02:41:36.304Z,13.07
2019-05-20T02:44:00.848Z,12.87
2019-05-20T02:46:25.448Z,13.60
2019-05-20T02:48:50.008Z,13.30
2019-05-20T02:51:16.165Z,13.40
2019-05-20T02:53:40.649Z,12.90
2019-05-20T02:56:05.242Z,14.43
2019-05-20T02:58:29.763Z,13.73
2019-05-20T03:00:54.392Z,13.23
2019-05-20T03:03:18.974Z,12.80
2019-05-20T03:05:43.468Z,13.30
2019-05-20T03:08:07.947Z,13.47
2019-05-20T03:10:32.490Z,13.27
2019-05-20T03:12:56.944Z,13.43
2019-05-20T03:15:21.507Z,14.20
2019-05-20T03:17:53.906Z,13.10
2019-05-20T03:20:18.513Z,14.17
2019-05-20T03:22:43.064Z,13.50
2019-05-20T03:25:08.387Z,13.40
2019-05-20T03:27:32.959Z,14.50
2019-05-20T03:29:57.564Z,13.70
2019-05-20T03:32:22.010Z,13.80
2019-05-20T03:34:57.992Z,13.70
2019-05-20T03:37:12.634Z,14.60
2019-05-20T03:39:37.209Z,13.90
2019-05-20T03:42:01.676Z,13.73
2019-05-20T03:44:26.154Z,14.73
2019-05-20T03:46:50.613Z,15.07
2019-05-20T03:49:15.236Z,14.10
2019-05-20T03:51:39.787Z,14.10
2019-05-20T03:54:04.346Z,14.00
2019-05-20T03:56:28.784Z,13.73
2019-05-20T03:58:53.342Z,13.90
2019-05-20T04:01:17.828Z,14.93
2019-05-20T04:03:42.281Z,15.30
2019-05-20T04:06:06.820Z,14.50
2019-05-20T04:08:31.280Z,15.03
2019-05-20T04:10:55.903Z,14.40
2019-05-20T04:13:20.517Z,15.60
2019-05-20T04:15:45.000Z,15.10
2019-05-20T04:18:09.507Z,15.53
2019-05-20T04:20:34.072Z,14.70
2019-05-20T04:22:58.543Z,16.47
2019-05-20T04:25:23.045Z,17.30
2019-05-20T04:27:47.636Z,16.47
2019-05-20T04:30:12.576Z,16.27
2019-05-20T04:32:37.168Z,16.20
2019-05-20T04:35:20.495Z,16.13
2019-05-20T04:37:28.610Z,15.90
2019-05-20T04:39:53.178Z,16.33
2019-05-20T04:42:17.635Z,17.07
2019-05-20T04:44:42.164Z,16.23
2019-05-20T04:47:06.842Z,17.33
2019-05-20T04:49:31.395Z,16.93
2019-05-20T04:51:55.961Z,17.37
2019-05-20T04:54:20.531Z,18.40
2019-05-20T04:56:45.105Z,18.20
2019-05-20T04:59:09.669Z,18.00
2019-05-20T05:01:34.151Z,17.63
2019-05-20T05:03:59.392Z,18.23
2019-05-20T05:06:23.917Z,18.50
2019-05-20T05:08:48.439Z,18.87
2019-05-20T05:11:13.124Z,19.77
2019-05-20T05:13:37.646Z,18.87
2019-05-20T05:16:02.263Z,19.93
2019-05-20T05:18:27.172Z,20.00
2019-05-20T05:20:51.904Z,19.90
2019-05-20T05:23:17.002Z,18.93
2019-05-20T05:25:41.626Z,19.73
2019-05-20T05:28:06.216Z,19.50
2019-05-20T05:30:30.837Z,19.10
2019-05-20T05:32:55.421Z,19.47
2019-05-20T05:35:20.215Z,20.30
2019-05-20T05:37:45.049Z,21.97
2019-05-20T05:40:09.773Z,22.00
2019-05-20T05:42:34.237Z,21.20
2019-05-20T05:44:58.695Z,21.20
2019-05-20T05:47:23.202Z,19.33
2019-05-20T05:49:47.671Z,20.13
2019-05-20T05:52:12.134Z,19.63
2019-05-20T05:54:36.851Z,19.23
2019-05-20T05:57:01.413Z,20.17
2019-05-20T05:59:25.869Z,19.83
2019-05-20T06:01:50.362Z,20.23
2019-05-20T06:04:14.910Z,20.43
2019-05-20T06:06:39.465Z,18.37
2019-05-20T06:09:05.504Z,20.50
2019-05-20T06:11:29.986Z,19.63
2019-05-20T06:13:54.443Z,20.60
2019-05-20T06:16:35.305Z,20.83
2019-05-20T06:18:45.352Z,21.47
2019-05-20T06:21:10.010Z,21.37
2019-05-20T06:23:34.473Z,20.90
2019-05-20T06:26:00.332Z,20.60
2019-05-20T06:28:24.807Z,20.63
2019-05-20T06:30:49.340Z,21.23
2019-05-20T06:33:13.955Z,18.37
2019-05-20T06:35:38.542Z,19.37
2019-05-20T06:38:04.738Z,21.03
2019-05-20T06:40:29.362Z,20.03
2019-05-20T06:42:53.835Z,20.87
2019-05-20T06:45:18.417Z,20.20
2019-05-20T06:47:42.954Z,20.90
2019-05-20T06:50:08.805Z,21.00
2019-05-20T06:52:36.113Z,21.97
2019-05-20T06:54:59.545Z,22.10
2019-05-20T06:57:24.178Z,21.73
2019-05-20T06:59:48.632Z,23.97
2019-05-20T07:02:13.135Z,21.50
2019-05-20T07:04:37.580Z,22.97
2019-05-20T07:07:02.103Z,23.93
2019-05-20T07:09:26.719Z,21.27
2019-05-20T07:11:53.097Z,21.43
2019-05-20T07:14:17.430Z,23.43
2019-05-20T07:16:41.948Z,22.27
2019-05-20T07:19:06.496Z,24.67
2019-05-20T07:21:30.955Z,22.77
2019-05-20T07:23:55.510Z,22.73
2019-05-20T07:26:19.993Z,23.37
2019-05-20T07:28:44.466Z,23.37
2019-05-20T07:31:08.926Z,22.27
2019-05-20T07:33:33.477Z,22.27
2019-05-20T07:35:58.005Z,22.97
2019-05-20T07:38:22.555Z,23.90
2019-05-20T07:40:47.094Z,23.33
2019-05-20T07:43:11.561Z,22.47
2019-05-20T07:45:36.965Z,22.53
2019-05-20T07:48:01.679Z,22.73
2019-05-20T07:50:26.767Z,21.97
2019-05-20T07:52:51.799Z,23.00
2019-05-20T07:55:16.491Z,23.27
2019-05-20T07:57:43.580Z,24.93
2019-05-20T08:00:11.049Z,23.90
2019-05-20T08:02:35.659Z,24.03
2019-05-20T08:05:00.589Z,22.20
2019-05-20T08:07:30.156Z,23.13
2019-05-20T08:09:52.292Z,22.77
2019-05-20T08:12:16.878Z,23.93
2019-05-20T08:14:41.410Z,23.20
2019-05-20T08:17:05.939Z,23.40
2019-05-20T08:19:30.500Z,25.63
2019-05-20T08:21:55.084Z,23.77
2019-05-20T08:24:19.802Z,22.23
2019-05-20T08:26:44.488Z,23.00
2019-05-20T08:29:09.237Z,23.27
2019-05-20T08:31:33.699Z,22.67
2019-05-20T08:33:58.350Z,23.70
2019-05-20T08:36:23.000Z,22.53
2019-05-20T08:38:47.781Z,22.87
2019-05-20T08:41:12.352Z,23.13
2019-05-20T08:43:36.899Z,22.17
2019-05-20T08:46:01.354Z,22.10
2019-05-20T08:48:25.875Z,21.63
2019-05-20T08:50:50.449Z,22.40
2019-05-20T08:53:14.919Z,24.43
2019-05-20T08:55:39.463Z,21.47
2019-05-20T08:58:03.950Z,22.17
2019-05-20T09:00:28.692Z,21.50
2019-05-20T09:02:53.340Z,20.87
2019-05-20T09:05:17.878Z,19.23
2019-05-20T09:07:42.392Z,19.50
2019-05-20T09:10:07.198Z,18.93
2019-05-20T09:12:31.659Z,18.57
2019-05-20T09:14:56.196Z,18.37
2019-05-20T09:17:20.735Z,18.07
2019-05-20T09:19:47.106Z,18.13
2019-05-20T09:22:11.495Z,18.10
2019-05-20T09:24:36.266Z,18.00
2019-05-20T09:27:00.909Z,16.50
2019-05-20T09:29:25.444Z,16.93
2019-05-20T09:31:50.015Z,17.50
2019-05-20T09:34:15.025Z,16.20
2019-05-20T09:36:39.469Z,15.77
2019-05-20T09:39:05.267Z,14.70
2019-05-20T09:41:29.732Z,13.47
2019-05-20T09:43:54.197Z,14.17
2019-05-20T09:46:18.743Z,14.70
2019-05-20T09:48:43.195Z,11.63
2019-05-20T09:51:07.740Z,11.67
2019-05-20T09:53:32.195Z,11.73
2019-05-20T09:55:56.649Z,18.20
2019-05-20T09:58:21.097Z,19.87
2019-05-20T10:00:46.521Z,19.40
2019-05-20T10:03:10.977Z,20.40
2019-05-20T10:05:37.351Z,20.97
2019-05-20T10:08:01.830Z,22.27
2019-05-20T10:10:26.430Z,21.73
2019-05-20T10:12:51.019Z,21.80
2019-05-20T10:15:16.136Z,21.33
2019-05-20T10:17:40.731Z,21.27
2019-05-20T10:20:09.405Z,19.87
2019-05-20T10:22:33.888Z,21.30
2019-05-20T10:24:58.351Z,21.03
2019-05-20T10:27:22.961Z,21.47
2019-05-20T10:29:47.482Z,21.00
2019-05-20T10:32:12.027Z,19.57
2019-05-20T10:34:37.619Z,21.07
2019-05-20T10:37:02.285Z,20.90
2019-05-20T10:39:26.814Z,19.10
2019-05-20T10:41:51.347Z,19.57
2019-05-20T10:44:15.819Z,17.90
2019-05-20T10:46:40.313Z,19.03
2019-05-20T10:49:04.834Z,18.60
2019-05-20T10:51:29.314Z,18.47
2019-05-20T10:53:53.886Z,17.17
2019-05-20T10:56:18.369Z,17.33
2019-05-20T10:58:42.832Z,18.60
2019-05-20T11:01:07.446Z,17.43
2019-05-20T11:03:31.959Z,17.83
2019-05-20T11:05:56.509Z,17.33
2019-05-20T11:08:21.039Z,17.37
2019-05-20T11:10:45.491Z,16.97
2019-05-20T11:13:09.966Z,14.70
2019-05-20T11:15:34.535Z,15.70
2019-05-20T11:17:59.013Z,14.60
2019-05-20T11:20:24.034Z,15.60
2019-05-20T11:22:48.585Z,14.73
2019-05-20T11:25:13.492Z,14.27
2019-05-20T11:27:37.941Z,13.97
2019-05-20T11:30:02.412Z,14.33
2019-05-20T11:32:27.303Z,14.23
2019-05-20T11:34:51.766Z,14.63
2019-05-20T11:37:16.375Z,14.83
2019-05-20T11:39:40.870Z,13.67
2019-05-20T11:42:05.407Z,14.83
2019-05-20T11:44:29.856Z,13.47
2019-05-20T11:46:54.327Z,12.97
2019-05-20T11:49:18.856Z,12.60
2019-05-20T11:51:43.336Z,12.73
2019-05-20T11:54:07.850Z,11.63
2019-05-20T11:56:32.296Z,11.33
2019-05-20T11:58:59.840Z,11.90
2019-05-20T12:01:24.346Z,14.13
2019-05-20T12:03:48.834Z,12.43
2019-05-20T12:06:13.376Z,11.33
2019-05-20T12:08:37.837Z,12.40
2019-05-20T12:11:02.286Z,12.15
2019-05-20T12:13:27.423Z,10.83
2019-05-20T12:15:51.871Z,11.07
2019-05-20T12:18:16.433Z,12.13
2019-05-20T12:20:40.986Z,11.25
2019-05-20T12:23:05.455Z,11.90
2019-05-20T12:25:29.911Z,10.48
2019-05-20T12:27:54.524Z,9.93
2019-05-20T12:30:19.327Z,9.98
2019-05-20T12:32:43.841Z,9.18
2019-05-20T12:35:08.856Z,10.25
2019-05-20T12:37:33.344Z,11.68
2019-05-20T12:40:07.080Z,9.10
2019-05-20T12:42:24.028Z,5.73
2019-05-20T12:44:48.462Z,5.50
2019-05-20T12:47:12.911Z,5.78
2019-05-20T12:49:37.547Z,8.10
2019-05-20T12:52:02.068Z,8.18
2019-05-20T12:54:26.762Z,6.78
2019-05-20T12:56:51.272Z,7.53
2019-05-20T12:59:15.917Z,6.62
2019-05-20T13:01:40.401Z,5.72
2019-05-20T13:04:05.221Z,6.90
2019-05-20T13:06:29.701Z,6.62
2019-05-20T13:08:54.283Z,7.28
2019-05-20T13:11:18.703Z,6.87
2019-05-20T13:13:43.537Z,7.22
2019-05-20T13:16:08.058Z,6.45
2019-05-20T13:18:32.596Z,6.62
2019-05-20T13:20:57.051Z,7.40
2019-05-20T13:23:21.517Z,6.42
2019-05-20T13:25:45.965Z,6.97
2019-05-20T13:28:10.421Z,9.23
2019-05-20T13:30:34.993Z,7.22
2019-05-20T13:32:59.516Z,10.35
2019-05-20T13:35:24.032Z,7.33
2019-05-20T13:37:48.527Z,8.43
2019-05-20T13:40:13.651Z,7.83
2019-05-20T13:42:38.244Z,6.60
2019-05-20T13:45:02.788Z,7.28
2019-05-20T13:47:27.315Z,7.17
2019-05-20T13:49:51.856Z,6.67
2019-05-20T13:52:16.421Z,6.83
2019-05-20T13:54:40.898Z,6.97
2019-05-20T13:57:05.437Z,9.93
2019-05-20T13:59:29.903Z,10.13
2019-05-20T14:01:54.374Z,6.05
2019-05-20T14:04:18.912Z,6.50
2019-05-20T14:06:43.468Z,7.05
2019-05-20T14:09:08.138Z,6.80
2019-05-20T14:11:34.854Z,6.67
2019-05-20T14:13:58.861Z,7.30
2019-05-20T14:16:23.333Z,6.20
2019-05-20T14:18:47.786Z,6.30
2019-05-20T14:21:12.315Z,6.85
2019-05-20T14:23:36.762Z,7.00
2019-05-20T14:26:01.203Z,7.00
2019-05-20T14:28:25.747Z,8.03
2019-05-20T14:30:50.340Z,7.20
2019-05-20T14:33:14.855Z,9.55
2019-05-20T14:35:39.327Z,6.95
2019-05-20T14:38:03.768Z,7.28
2019-05-20T14:40:28.236Z,7.60
2019-05-20T14:42:52.692Z,8.08
2019-05-20T14:45:17.494Z,7.97
2019-05-20T14:47:41.924Z,7.65
2019-05-20T14:50:09.588Z,7.80
2019-05-20T14:52:34.034Z,8.53
2019-05-20T14:54:58.491Z,8.73
2019-05-20T14:57:23.008Z,7.37
2019-05-20T14:59:47.535Z,10.78
2019-05-20T15:02:12.091Z,8.03
2019-05-20T15:04:36.611Z,6.90
2019-05-20T15:07:01.082Z,9.27
2019-05-20T15:09:25.568Z,8.00
2019-05-20T15:11:50.003Z,8.48
2019-05-20T15:14:14.465Z,7.87
2019-05-20T15:16:39.054Z,7.92
2019-05-20T15:19:03.504Z,9.68
2019-05-20T15:21:29.584Z,7.73
2019-05-20T15:23:54.166Z,8.80
2019-05-20T15:26:18.717Z,7.78
2019-05-20T15:28:43.158Z,8.17
2019-05-20T15:31:07.720Z,8.00
2019-05-20T15:33:32.148Z,7.67
2019-05-20T15:35:56.679Z,7.97
2019-05-20T15:38:21.117Z,9.20
2019-05-20T15:40:45.662Z,8.48
2019-05-20T15:43:10.120Z,8.08
2019-05-20T15:45:34.682Z,8.53
2019-05-20T15:47:59.409Z,8.40
2019-05-20T15:50:23.954Z,10.00
2019-05-20T15:52:50.999Z,8.53
2019-05-20T15:55:15.615Z,9.00
2019-05-20T15:57:40.165Z,8.07
2019-05-20T16:00:08.062Z,8.43
2019-05-20T16:02:32.539Z,8.93
2019-05-20T16:04:57.049Z,9.03
2019-05-20T16:07:21.533Z,8.50
2019-05-20T16:09:46.127Z,8.60
2019-05-20T16:12:10.705Z,8.10
2019-05-20T16:14:35.492Z,9.20
2019-05-20T16:16:59.941Z,8.53
2019-05-20T16:19:24.393Z,6.83
2019-05-20T16:21:48.881Z,8.73
2019-05-20T16:24:13.398Z,7.90
2019-05-20T16:26:38.004Z,8.10
2019-05-20T16:29:02.551Z,7.60
2019-05-20T16:31:27.096Z,7.93
2019-05-20T16:33:51.563Z,7.80
2019-05-20T16:36:16.018Z,8.10
2019-05-20T16:38:40.479Z,8.03
2019-05-20T16:41:05.073Z,10.83
2019-05-20T16:43:29.530Z,9.97
2019-05-20T16:45:54.045Z,11.33
2019-05-20T16:48:18.669Z,8.40
2019-05-20T16:50:43.119Z,7.70
2019-05-20T16:53:07.723Z,11.20
2019-05-20T16:55:32.253Z,10.83
2019-05-20T16:57:56.885Z,10.20
2019-05-20T17:00:31.604Z,9.93
2019-05-20T17:02:47.879Z,8.57
2019-05-20T17:05:13.780Z,13.53
2019-05-20T17:07:38.341Z,8.07
2019-05-20T17:10:03.093Z,9.57
2019-05-20T17:12:27.690Z,11.53
2019-05-20T17:14:52.221Z,9.53
2019-05-20T17:17:16.692Z,12.97
2019-05-20T17:19:41.135Z,12.70
2019-05-20T17:22:05.826Z,10.07
2019-05-20T17:24:30.271Z,8.63
2019-05-20T17:26:54.917Z,10.40
2019-05-20T17:29:19.410Z,9.20
2019-05-20T17:31:43.876Z,11.00
2019-05-20T17:34:08.408Z,11.67
2019-05-20T17:36:32.948Z,10.73
2019-05-20T17:38:57.390Z,10.97
2019-05-20T17:41:21.854Z,14.20
2019-05-20T17:43:46.341Z,13.47
2019-05-20T17:46:10.844Z,12.90
2019-05-20T17:48:35.511Z,12.07
2019-05-20T17:51:00.020Z,16.60
2019-05-20T17:53:24.494Z,21.27
2019-05-20T17:55:49.031Z,16.77
2019-05-20T17:58:13.497Z,14.60
2019-05-20T18:00:38.095Z,17.00
2019-05-20T18:03:02.657Z,14.23
2019-05-20T18:05:27.194Z,12.33
2019-05-20T18:07:51.655Z,15.10
2019-05-20T18:10:18.007Z,12.10
2019-05-20T18:12:42.489Z,12.93
2019-05-20T18:15:07.560Z,21.27
2019-05-20T18:17:32.128Z,13.30
2019-05-20T18:19:56.578Z,12.07
2019-05-20T18:22:21.055Z,12.70
2019-05-20T18:24:45.546Z,12.63
2019-05-20T18:27:10.014Z,12.60
2019-05-20T18:29:34.475Z,13.87
2019-05-20T18:31:59.063Z,13.60
2019-05-20T18:34:23.546Z,13.70
2019-05-20T18:36:48.058Z,14.60
2019-05-20T18:39:12.609Z,15.00
2019-05-20T18:41:37.130Z,15.43
2019-05-20T18:44:01.621Z,18.10
2019-05-20T18:46:26.132Z,14.87
2019-05-20T18:48:50.596Z,17.77
2019-05-20T18:51:15.054Z,16.43
2019-05-20T18:53:39.596Z,15.80
2019-05-20T18:56:04.190Z,15.13
2019-05-20T18:58:28.739Z,15.30
2019-05-20T19:00:53.261Z,15.23
2019-05-20T19:03:17.798Z,14.33
2019-05-20T19:05:42.343Z,16.23
2019-05-20T19:08:06.980Z,15.73
2019-05-20T19:10:31.672Z,13.97
2019-05-20T19:12:56.150Z,14.17
2019-05-20T19:15:20.851Z,15.33
2019-05-20T19:17:45.356Z,15.70
2019-05-20T19:20:09.947Z,16.40
2019-05-20T19:22:34.454Z,15.07
2019-05-20T19:24:58.929Z,15.90
2019-05-20T19:27:23.367Z,14.40
2019-05-20T19:29:47.922Z,13.43
2019-05-20T19:32:14.150Z,13.63
2019-05-20T19:34:38.712Z,13.00
2019-05-20T19:37:03.208Z,14.47
2019-05-20T19:39:27.898Z,14.37
2019-05-20T19:41:52.415Z,13.57
2019-05-20T19:44:16.901Z,16.27
2019-05-20T19:46:41.352Z,15.80
2019-05-20T19:49:05.949Z,14.93
2019-05-20T19:51:30.467Z,14.93
2019-05-20T19:53:55.006Z,15.53
2019-05-20T19:56:19.459Z,15.27
2019-05-20T19:58:43.945Z,15.40
2019-05-20T20:01:08.515Z,15.40
2019-05-20T20:03:33.118Z,16.47
2019-05-20T20:05:57.659Z,15.27
2019-05-20T20:08:22.133Z,16.83
2019-05-20T20:10:46.570Z,14.90
2019-05-20T20:13:11.200Z,17.57
2019-05-20T20:15:35.765Z,15.40
2019-05-20T20:18:00.207Z,17.27
2019-05-20T20:20:24.681Z,17.43
2019-05-20T20:22:49.265Z,17.00
2019-05-20T20:25:12.730Z,17.03
2019-05-20T20:27:37.192Z,16.37
2019-05-20T20:30:01.662Z,16.00
2019-05-20T20:32:37.553Z,15.67
2019-05-20T20:34:52.310Z,15.80
2019-05-20T20:37:16.824Z,15.70
2019-05-20T20:39:41.285Z,15.27
2019-05-20T20:42:05.753Z,14.27
2019-05-20T20:44:30.237Z,13.70
2019-05-20T20:46:54.685Z,14.00
2019-05-20T20:49:19.132Z,13.47
2019-05-20T20:51:43.647Z,13.87
2019-05-20T20:54:08.176Z,13.37
2019-05-20T20:56:34.337Z,13.47
2019-05-20T20:58:59.075Z,13.57
2019-05-20T21:01:23.591Z,14.63
2019-05-20T21:03:48.085Z,13.07
2019-05-20T21:06:12.694Z,13.13
2019-05-20T21:08:37.227Z,13.33
2019-05-20T21:11:01.690Z,13.17
2019-05-20T21:13:26.243Z,14.60
2019-05-20T21:15:50.709Z,13.17
2019-05-20T21:18:15.145Z,14.33
2019-05-20T21:20:39.736Z,15.50
2019-05-20T21:23:04.192Z,14.30
2019-05-20T21:25:28.790Z,15.63
2019-05-20T21:27:53.340Z,17.13
2019-05-20T21:30:19.407Z,18.93
2019-05-20T21:32:43.861Z,16.23
2019-05-20T21:35:08.654Z,16.30
2019-05-20T21:37:33.163Z,17.93
2019-05-20T21:39:57.629Z,16.77
2019-05-20T21:42:22.094Z,19.23
2019-05-20T21:44:46.678Z,17.13
2019-05-20T21:47:11.317Z,18.40
2019-05-20T21:49:35.801Z,17.80
2019-05-20T21:52:00.228Z,20.40
2019-05-20T21:54:25.466Z,18.67
2019-05-20T21:56:50.239Z,18.50
2019-05-20T21:59:14.796Z,20.20
2019-05-20T22:01:39.279Z,19.60
2019-05-20T22:04:03.859Z,21.67
2019-05-20T22:06:28.466Z,17.73
2019-05-20T22:08:52.911Z,19.43
2019-05-20T22:11:17.461Z,19.40
2019-05-20T22:13:42.014Z,19.80
2019-05-20T22:16:06.632Z,19.53
2019-05-20T22:18:31.091Z,19.67
2019-05-20T22:20:55.555Z,19.07
2019-05-20T22:23:24.726Z,18.27
2019-05-20T22:25:50.840Z,18.43
2019-05-20T22:28:15.283Z,18.47
2019-05-20T22:30:39.831Z,18.70
2019-05-20T22:33:04.289Z,19.73
2019-05-20T22:35:28.834Z,19.90
2019-05-20T22:37:53.277Z,21.70
2019-05-20T22:40:17.904Z,19.90
2019-05-20T22:42:42.391Z,20.30
2019-05-20T22:45:06.991Z,20.57
2019-05-20T22:47:31.471Z,19.03
2019-05-20T22:49:55.950Z,20.30
2019-05-20T22:52:20.426Z,20.33
2019-05-20T22:54:44.873Z,21.50
2019-05-20T22:57:09.343Z,21.27
2019-05-20T22:59:33.798Z,21.23
2019-05-20T23:01:58.329Z,21.67
2019-05-20T23:04:22.783Z,21.30
2019-05-20T23:06:47.366Z,23.70
2019-05-20T23:09:14.768Z,24.30
2019-05-20T23:11:37.954Z,21.23
2019-05-20T23:14:02.505Z,22.27
2019-05-20T23:16:26.992Z,21.57
2019-05-20T23:18:51.433Z,20.73
2019-05-20T23:21:15.907Z,22.43
2019-05-20T23:23:40.421Z,22.10
2019-05-20T23:26:04.883Z,21.93
2019-05-20T23:28:29.358Z,23.23
2019-05-20T23:30:53.795Z,21.50
2019-05-20T23:33:18.383Z,21.77
2019-05-20T23:35:42.866Z,21.50
2019-05-20T23:38:07.399Z,20.77
2019-05-20T23:40:31.866Z,21.83
2019-05-20T23:42:56.346Z,20.60
2019-05-20T23:45:20.951Z,20.80
2019-05-20T23:47:45.467Z,21.07
2019-05-20T23:50:10.396Z,21.80
2019-05-20T23:52:34.861Z,22.80
2019-05-20T23:54:59.487Z,21.83
2019-05-20T23:57:23.968Z,21.73
2019-05-20T23:59:48.480Z,21.50
